sensor_id;sensor_type;location;lat;lon;timestamp;temperature;humidity
2783;DHT22;1399;47.072;15.452;2023-04-01T00:02:24;13.20;59.60
2783;DHT22;1399;47.072;15.452;2023-04-01T00:04:50;13.10;59.50
2783;DHT22;1399;47.072;15.452;2023-04-01T00:07:16;13.10;59.50
2783;DHT22;1399;47.072;15.452;2023-04-01T00:09:41;13.10;59.50
2783;DHT22;1399;47.072;15.452;2023-04-01T00:12:07;13.10;59.50
2783;DHT22;1399;47.072;15.452;2023-04-01T00:14:33;13.10;59.50
2783;DHT22;1399;47.072;15.452;2023-04-01T00:17:00;13.10;59.60
2783;DHT22;1399;47.072;15.452;2023-04-01T00:19:25;13.10;59.60
2783;DHT22;1399;47.072;15.452;2023-04-01T00:21:51;13.10;59.60
2783;DHT22;1399;47.072;15.452;2023-04-01T00:24:17;13.10;59.60
2783;DHT22;1399;47.072;15.452;2023-04-01T00:26:43;13.00;59.50
2783;DHT22;1399;47.072;15.452;2023-04-01T00:29:10;13.00;59.50
2783;DHT22;1399;47.072;15.452;2023-04-01T00:31:35;13.00;59.50
2783;DHT22;1399;47.072;15.452;2023-04-01T00:34:01;13.00;59.60
2783;DHT22;1399;47.072;15.452;2023-04-01T00:36:27;13.00;59.60
2783;DHT22;1399;47.072;15.452;2023-04-01T00:38:53;13.00;59.60
2783;DHT22;1399;47.072;15.452;2023-04-01T00:41:19;13.00;59.60
2783;DHT22;1399;47.072;15.452;2023-04-01T00:43:48;13.00;59.60
2783;DHT22;1399;47.072;15.452;2023-04-01T00:46:14;13.00;59.60
2783;DHT22;1399;47.072;15.452;2023-04-01T00:48:45;12.90;59.60
2783;DHT22;1399;47.072;15.452;2023-04-01T00:51:18;12.90;59.60
2783;DHT22;1399;47.072;15.452;2023-04-01T00:53:48;12.90;59.60
2783;DHT22;1399;47.072;15.452;2023-04-01T00:56:33;12.90;59.60
2783;DHT22;1399;47.072;15.452;2023-04-01T00:59:05;12.90;59.60
2783;DHT22;1399;47.072;15.452;2023-04-01T01:01:35;12.90;59.60
2783;DHT22;1399;47.072;15.452;2023-04-01T01:04:01;12.90;59.60
2783;DHT22;1399;47.072;15.452;2023-04-01T01:25:18;12.80;59.50
2783;DHT22;1399;47.072;15.452;2023-04-01T01:28:15;12.80;59.50
2783;DHT22;1399;47.072;15.452;2023-04-01T01:31:03;12.80;59.60
2783;DHT22;1399;47.072;15.452;2023-04-01T01:36:28;12.80;59.50
2783;DHT22;1399;47.072;15.452;2023-04-01T01:38:56;12.70;59.50
2783;DHT22;1399;47.072;15.452;2023-04-01T01:41:25;12.80;59.60
2783;DHT22;1399;47.072;15.452;2023-04-01T01:43:53;12.80;59.60
2783;DHT22;1399;47.072;15.452;2023-04-01T01:46:23;12.70;59.50
2783;DHT22;1399;47.072;15.452;2023-04-01T01:48:51;12.70;59.50
2783;DHT22;1399;47.072;15.452;2023-04-01T01:51:18;12.70;59.50
2783;DHT22;1399;47.072;15.452;2023-04-01T01:53:45;12.70;59.50
2783;DHT22;1399;47.072;15.452;2023-04-01T01:56:12;12.70;59.50
2783;DHT22;1399;47.072;15.452;2023-04-01T01:58:43;12.70;59.50
2783;DHT22;1399;47.072;15.452;2023-04-01T02:01:14;12.70;59.50
2783;DHT22;1399;47.072;15.452;2023-04-01T02:03:42;12.70;59.50
2783;DHT22;1399;47.072;15.452;2023-04-01T02:06:11;12.70;59.40
2783;DHT22;1399;47.072;15.452;2023-04-01T02:09:01;12.70;59.40
2783;DHT22;1399;47.072;15.452;2023-04-01T02:11:58;12.60;59.30
2783;DHT22;1399;47.072;15.452;2023-04-01T02:14:56;12.70;59.40
2783;DHT22;1399;47.072;15.452;2023-04-01T02:17:29;12.60;59.30
2783;DHT22;1399;47.072;15.452;2023-04-01T02:22:38;12.60;59.30
2783;DHT22;1399;47.072;15.452;2023-04-01T02:25:18;12.60;59.30
2783;DHT22;1399;47.072;15.452;2023-04-01T02:27:46;12.70;59.30
2783;DHT22;1399;47.072;15.452;2023-04-01T02:30:14;12.60;59.30
2783;DHT22;1399;47.072;15.452;2023-04-01T02:32:40;12.60;59.30
2783;DHT22;1399;47.072;15.452;2023-04-01T02:35:09;12.60;59.30
2783;DHT22;1399;47.072;15.452;2023-04-01T02:37:36;12.60;59.30
2783;DHT22;1399;47.072;15.452;2023-04-01T02:40:04;12.60;59.30
2783;DHT22;1399;47.072;15.452;2023-04-01T02:42:32;12.60;59.20
2783;DHT22;1399;47.072;15.452;2023-04-01T02:44:58;12.60;59.20
2783;DHT22;1399;47.072;15.452;2023-04-01T02:47:23;12.60;59.20
2783;DHT22;1399;47.072;15.452;2023-04-01T02:49:49;12.60;59.20
2783;DHT22;1399;47.072;15.452;2023-04-01T02:52:15;12.60;59.20
2783;DHT22;1399;47.072;15.452;2023-04-01T02:54:41;12.60;59.10
2783;DHT22;1399;47.072;15.452;2023-04-01T02:57:06;12.60;59.10
2783;DHT22;1399;47.072;15.452;2023-04-01T02:59:32;12.60;59.10
2783;DHT22;1399;47.072;15.452;2023-04-01T03:01:58;12.60;59.10
2783;DHT22;1399;47.072;15.452;2023-04-01T03:04:24;12.60;59.10
2783;DHT22;1399;47.072;15.452;2023-04-01T03:06:50;12.60;59.10
2783;DHT22;1399;47.072;15.452;2023-04-01T03:09:16;12.60;59.20
2783;DHT22;1399;47.072;15.452;2023-04-01T03:11:42;12.60;59.10
2783;DHT22;1399;47.072;15.452;2023-04-01T03:14:08;12.60;59.10
2783;DHT22;1399;47.072;15.452;2023-04-01T03:16:33;12.50;59.00
2783;DHT22;1399;47.072;15.452;2023-04-01T03:18:59;12.60;59.10
2783;DHT22;1399;47.072;15.452;2023-04-01T03:21:27;12.60;59.00
2783;DHT22;1399;47.072;15.452;2023-04-01T03:23:53;12.50;59.00
2783;DHT22;1399;47.072;15.452;2023-04-01T03:26:19;12.60;59.00
2783;DHT22;1399;47.072;15.452;2023-04-01T03:28:45;12.50;58.90
2783;DHT22;1399;47.072;15.452;2023-04-01T03:31:11;12.50;58.90
2783;DHT22;1399;47.072;15.452;2023-04-01T03:33:37;12.50;58.90
2783;DHT22;1399;47.072;15.452;2023-04-01T03:36:03;12.50;58.90
2783;DHT22;1399;47.072;15.452;2023-04-01T03:38:33;12.50;58.90
2783;DHT22;1399;47.072;15.452;2023-04-01T03:40:59;12.50;58.90
2783;DHT22;1399;47.072;15.452;2023-04-01T03:43:27;12.50;58.90
2783;DHT22;1399;47.072;15.452;2023-04-01T03:45:53;12.50;58.90
2783;DHT22;1399;47.072;15.452;2023-04-01T03:48:20;12.50;58.90
2783;DHT22;1399;47.072;15.452;2023-04-01T03:50:46;12.50;58.90
2783;DHT22;1399;47.072;15.452;2023-04-01T03:53:12;12.50;58.80
2783;DHT22;1399;47.072;15.452;2023-04-01T03:55:39;12.50;58.80
2783;DHT22;1399;47.072;15.452;2023-04-01T03:58:06;12.50;58.90
2783;DHT22;1399;47.072;15.452;2023-04-01T04:00:32;12.50;58.90
2783;DHT22;1399;47.072;15.452;2023-04-01T04:02:58;12.50;58.80
2783;DHT22;1399;47.072;15.452;2023-04-01T04:05:25;12.50;58.80
2783;DHT22;1399;47.072;15.452;2023-04-01T04:07:51;12.50;58.80
2783;DHT22;1399;47.072;15.452;2023-04-01T04:10:17;12.50;58.80
2783;DHT22;1399;47.072;15.452;2023-04-01T04:12:43;12.50;58.80
2783;DHT22;1399;47.072;15.452;2023-04-01T04:15:09;12.50;58.80
2783;DHT22;1399;47.072;15.452;2023-04-01T04:17:35;12.50;58.80
2783;DHT22;1399;47.072;15.452;2023-04-01T04:20:01;12.50;58.80
2783;DHT22;1399;47.072;15.452;2023-04-01T04:22:27;12.50;58.80
2783;DHT22;1399;47.072;15.452;2023-04-01T04:24:53;12.50;58.80
2783;DHT22;1399;47.072;15.452;2023-04-01T04:27:19;12.50;58.80
2783;DHT22;1399;47.072;15.452;2023-04-01T04:29:44;12.50;58.80
2783;DHT22;1399;47.072;15.452;2023-04-01T04:32:10;12.50;58.80
2783;DHT22;1399;47.072;15.452;2023-04-01T04:34:36;12.50;58.70
2783;DHT22;1399;47.072;15.452;2023-04-01T04:37:02;12.50;58.70
2783;DHT22;1399;47.072;15.452;2023-04-01T04:39:28;12.50;58.70
2783;DHT22;1399;47.072;15.452;2023-04-01T04:41:54;12.50;58.70
2783;DHT22;1399;47.072;15.452;2023-04-01T04:44:20;12.50;58.70
2783;DHT22;1399;47.072;15.452;2023-04-01T04:46:46;12.50;58.70
2783;DHT22;1399;47.072;15.452;2023-04-01T04:49:11;12.50;58.70
2783;DHT22;1399;47.072;15.452;2023-04-01T04:51:37;12.50;58.70
2783;DHT22;1399;47.072;15.452;2023-04-01T04:54:04;12.50;58.70
2783;DHT22;1399;47.072;15.452;2023-04-01T04:56:31;12.50;58.60
2783;DHT22;1399;47.072;15.452;2023-04-01T04:58:57;12.50;58.60
2783;DHT22;1399;47.072;15.452;2023-04-01T05:01:24;12.50;58.60
2783;DHT22;1399;47.072;15.452;2023-04-01T05:03:50;12.50;58.60
2783;DHT22;1399;47.072;15.452;2023-04-01T05:06:16;12.50;58.50
2783;DHT22;1399;47.072;15.452;2023-04-01T05:08:44;12.60;58.60
2783;DHT22;1399;47.072;15.452;2023-04-01T05:11:13;12.60;58.60
2783;DHT22;1399;47.072;15.452;2023-04-01T05:13:39;12.60;58.50
2783;DHT22;1399;47.072;15.452;2023-04-01T05:16:17;12.60;58.50
2783;DHT22;1399;47.072;15.452;2023-04-01T05:18:43;12.60;58.40
2783;DHT22;1399;47.072;15.452;2023-04-01T05:21:10;12.60;58.30
2783;DHT22;1399;47.072;15.452;2023-04-01T05:23:37;12.60;58.20
2783;DHT22;1399;47.072;15.452;2023-04-01T05:26:13;12.70;58.30
2783;DHT22;1399;47.072;15.452;2023-04-01T05:28:39;12.70;58.30
2783;DHT22;1399;47.072;15.452;2023-04-01T05:31:06;12.70;58.20
2783;DHT22;1399;47.072;15.452;2023-04-01T05:33:32;12.70;58.10
2783;DHT22;1399;47.072;15.452;2023-04-01T05:36:16;12.80;58.10
2783;DHT22;1399;47.072;15.452;2023-04-01T05:38:43;12.80;58.10
2783;DHT22;1399;47.072;15.452;2023-04-01T05:41:11;12.80;58.00
2783;DHT22;1399;47.072;15.452;2023-04-01T05:43:38;12.80;58.00
2783;DHT22;1399;47.072;15.452;2023-04-01T05:46:04;12.90;58.10
2783;DHT22;1399;47.072;15.452;2023-04-01T05:48:30;12.90;58.00
2783;DHT22;1399;47.072;15.452;2023-04-01T05:50:55;12.90;58.00
2783;DHT22;1399;47.072;15.452;2023-04-01T05:53:21;12.90;57.90
2783;DHT22;1399;47.072;15.452;2023-04-01T05:55:47;13.00;57.90
2783;DHT22;1399;47.072;15.452;2023-04-01T05:58:13;13.00;57.80
2783;DHT22;1399;47.072;15.452;2023-04-01T06:00:39;13.00;57.70
2783;DHT22;1399;47.072;15.452;2023-04-01T06:03:05;13.00;57.60
2783;DHT22;1399;47.072;15.452;2023-04-01T06:05:38;13.10;57.50
2783;DHT22;1399;47.072;15.452;2023-04-01T06:08:16;13.10;57.40
2783;DHT22;1399;47.072;15.452;2023-04-01T06:11:22;13.20;57.40
2783;DHT22;1399;47.072;15.452;2023-04-01T06:14:41;13.20;57.20
2783;DHT22;1399;47.072;15.452;2023-04-01T06:16:54;13.20;57.10
2783;DHT22;1399;47.072;15.452;2023-04-01T06:22:30;13.30;56.90
2783;DHT22;1399;47.072;15.452;2023-04-01T06:25:18;13.40;56.80
2783;DHT22;1399;47.072;15.452;2023-04-01T06:58:05;14.40;54.80
2783;DHT22;1399;47.072;15.452;2023-04-01T07:00:37;14.40;54.60
2783;DHT22;1399;47.072;15.452;2023-04-01T07:03:16;14.50;54.60
2783;DHT22;1399;47.072;15.452;2023-04-01T07:05:44;14.50;54.50
2783;DHT22;1399;47.072;15.452;2023-04-01T07:08:13;14.50;54.30
2783;DHT22;1399;47.072;15.452;2023-04-01T07:21:42;14.70;54.00
2783;DHT22;1399;47.072;15.452;2023-04-01T07:24:17;14.80;53.70
2783;DHT22;1399;47.072;15.452;2023-04-01T07:26:47;14.90;53.50
2783;DHT22;1399;47.072;15.452;2023-04-01T07:29:14;15.00;53.40
2783;DHT22;1399;47.072;15.452;2023-04-01T07:34:28;15.10;53.80
2783;DHT22;1399;47.072;15.452;2023-04-01T07:37:00;15.10;53.10
2783;DHT22;1399;47.072;15.452;2023-04-01T07:39:38;15.20;53.00
2783;DHT22;1399;47.072;15.452;2023-04-01T07:45:43;15.20;52.90
2783;DHT22;1399;47.072;15.452;2023-04-01T07:51:23;15.20;52.80
2783;DHT22;1399;47.072;15.452;2023-04-01T07:54:22;15.20;52.70
2783;DHT22;1399;47.072;15.452;2023-04-01T08:02:02;15.30;52.60
2783;DHT22;1399;47.072;15.452;2023-04-01T08:18:23;15.50;52.30
2783;DHT22;1399;47.072;15.452;2023-04-01T08:20:59;15.60;52.20
2783;DHT22;1399;47.072;15.452;2023-04-01T08:24:13;15.60;52.10
2783;DHT22;1399;47.072;15.452;2023-04-01T08:29:15;15.80;52.00
2783;DHT22;1399;47.072;15.452;2023-04-01T08:32:03;15.90;51.90
2783;DHT22;1399;47.072;15.452;2023-04-01T08:34:36;16.00;51.70
2783;DHT22;1399;47.072;15.452;2023-04-01T08:37:11;16.10;51.60
2783;DHT22;1399;47.072;15.452;2023-04-01T08:39:54;16.20;51.50
2783;DHT22;1399;47.072;15.452;2023-04-01T08:56:18;16.60;51.00
2783;DHT22;1399;47.072;15.452;2023-04-01T09:18:07;16.80;50.70
2783;DHT22;1399;47.072;15.452;2023-04-01T09:20:50;16.80;51.30
2783;DHT22;1399;47.072;15.452;2023-04-01T09:26:18;16.80;50.60
2783;DHT22;1399;47.072;15.452;2023-04-01T09:29:20;16.80;50.60
2783;DHT22;1399;47.072;15.452;2023-04-01T09:37:25;16.90;50.40
2783;DHT22;1399;47.072;15.452;2023-04-01T09:40:18;17.00;50.40
2783;DHT22;1399;47.072;15.452;2023-04-01T09:57:00;17.20;50.00
2783;DHT22;1399;47.072;15.452;2023-04-01T10:13:36;17.40;49.70
2783;DHT22;1399;47.072;15.452;2023-04-01T10:16:37;17.40;49.60
2783;DHT22;1399;47.072;15.452;2023-04-01T10:27:33;17.50;49.50
2783;DHT22;1399;47.072;15.452;2023-04-01T10:36:05;17.50;49.30
2783;DHT22;1399;47.072;15.452;2023-04-01T10:49:46;17.70;47.80
2783;DHT22;1399;47.072;15.452;2023-04-01T10:55:35;17.80;46.90
2783;DHT22;1399;47.072;15.452;2023-04-01T11:29:32;18.10;43.00
2783;DHT22;1399;47.072;15.452;2023-04-01T11:40:05;18.10;42.60
2783;DHT22;1399;47.072;15.452;2023-04-01T11:48:00;18.10;42.50
2783;DHT22;1399;47.072;15.452;2023-04-01T11:53:47;18.10;42.30
2783;DHT22;1399;47.072;15.452;2023-04-01T12:03:00;18.20;41.90
2783;DHT22;1399;47.072;15.452;2023-04-01T12:21:42;18.40;40.80
2783;DHT22;1399;47.072;15.452;2023-04-01T12:24:19;18.40;40.60
2783;DHT22;1399;47.072;15.452;2023-04-01T12:32:45;18.50;40.00
2783;DHT22;1399;47.072;15.452;2023-04-01T12:38:13;18.50;39.70
2783;DHT22;1399;47.072;15.452;2023-04-01T12:41:17;18.50;39.60
2783;DHT22;1399;47.072;15.452;2023-04-01T13:03:25;18.60;38.90
2783;DHT22;1399;47.072;15.452;2023-04-01T13:16:52;18.50;39.20
2783;DHT22;1399;47.072;15.452;2023-04-01T13:22:21;18.50;39.30
2783;DHT22;1399;47.072;15.452;2023-04-01T13:24:58;18.50;39.30
2783;DHT22;1399;47.072;15.452;2023-04-01T13:27:34;18.50;39.20
2783;DHT22;1399;47.072;15.452;2023-04-01T13:36:03;18.40;39.60
2783;DHT22;1399;47.072;15.452;2023-04-01T13:44:43;18.40;39.30
2783;DHT22;1399;47.072;15.452;2023-04-01T13:55:46;18.40;39.40
2783;DHT22;1399;47.072;15.452;2023-04-01T13:58:20;18.40;39.20
2783;DHT22;1399;47.072;15.452;2023-04-01T14:25:59;18.40;37.70
2783;DHT22;1399;47.072;15.452;2023-04-01T14:50:46;18.10;36.20
2783;DHT22;1399;47.072;15.452;2023-04-01T14:53:28;18.10;36.10
2783;DHT22;1399;47.072;15.452;2023-04-01T14:55:57;18.10;36.00
2783;DHT22;1399;47.072;15.452;2023-04-01T14:58:37;18.10;35.80
2783;DHT22;1399;47.072;15.452;2023-04-01T15:03:40;18.00;35.50
2783;DHT22;1399;47.072;15.452;2023-04-01T15:06:41;18.00;35.40
2783;DHT22;1399;47.072;15.452;2023-04-01T15:09:17;18.00;35.40
2783;DHT22;1399;47.072;15.452;2023-04-01T15:20:25;17.90;35.20
2783;DHT22;1399;47.072;15.452;2023-04-01T15:33:52;17.80;34.90
2783;DHT22;1399;47.072;15.452;2023-04-01T15:36:42;17.80;35.00
2783;DHT22;1399;47.072;15.452;2023-04-01T15:55:54;17.50;36.30
2783;DHT22;1399;47.072;15.452;2023-04-01T16:04:00;17.40;36.80
2783;DHT22;1399;47.072;15.452;2023-04-01T16:21:12;17.30;37.60
2783;DHT22;1399;47.072;15.452;2023-04-01T16:24:44;17.30;37.70
2783;DHT22;1399;47.072;15.452;2023-04-01T16:27:36;17.30;37.80
2783;DHT22;1399;47.072;15.452;2023-04-01T16:30:16;17.20;37.70
2783;DHT22;1399;47.072;15.452;2023-04-01T16:32:58;17.20;37.80
2783;DHT22;1399;47.072;15.452;2023-04-01T16:43:54;17.10;37.60
2783;DHT22;1399;47.072;15.452;2023-04-01T16:57:24;16.90;37.60
2783;DHT22;1399;47.072;15.452;2023-04-01T17:02:28;16.80;37.50
2783;DHT22;1399;47.072;15.452;2023-04-01T17:07:36;16.90;37.60
2783;DHT22;1399;47.072;15.452;2023-04-01T17:19:04;16.70;37.50
2783;DHT22;1399;47.072;15.452;2023-04-01T17:35:22;16.50;37.70
2783;DHT22;1399;47.072;15.452;2023-04-01T17:38:23;16.50;37.80
2783;DHT22;1399;47.072;15.452;2023-04-01T17:41:08;16.50;37.90
2783;DHT22;1399;47.072;15.452;2023-04-01T17:44:08;16.40;37.90
2783;DHT22;1399;47.072;15.452;2023-04-01T17:51:43;16.40;38.00
2783;DHT22;1399;47.072;15.452;2023-04-01T17:59:37;16.30;38.10
2783;DHT22;1399;47.072;15.452;2023-04-01T18:16:43;16.20;38.70
2783;DHT22;1399;47.072;15.452;2023-04-01T18:22:44;16.10;38.80
2783;DHT22;1399;47.072;15.452;2023-04-01T18:28:16;16.10;38.60
2783;DHT22;1399;47.072;15.452;2023-04-01T18:30:40;16.00;38.60
2783;DHT22;1399;47.072;15.452;2023-04-01T18:33:18;16.00;38.50
2783;DHT22;1399;47.072;15.452;2023-04-01T18:38:16;15.90;38.50
2783;DHT22;1399;47.072;15.452;2023-04-01T18:41:13;15.90;38.60
2783;DHT22;1399;47.072;15.452;2023-04-01T18:44:07;15.90;38.60
2783;DHT22;1399;47.072;15.452;2023-04-01T18:49:39;15.90;38.60
2783;DHT22;1399;47.072;15.452;2023-04-01T18:57:18;15.80;39.00
2783;DHT22;1399;47.072;15.452;2023-04-01T18:59:46;15.80;39.10
2783;DHT22;1399;47.072;15.452;2023-04-01T19:05:30;15.80;39.30
2783;DHT22;1399;47.072;15.452;2023-04-01T19:08:19;15.70;39.50
2783;DHT22;1399;47.072;15.452;2023-04-01T19:13:49;15.70;39.60
2783;DHT22;1399;47.072;15.452;2023-04-01T19:16:31;15.70;39.70
2783;DHT22;1399;47.072;15.452;2023-04-01T19:24:31;15.70;40.00
2783;DHT22;1399;47.072;15.452;2023-04-01T19:27:29;15.70;40.10
2783;DHT22;1399;47.072;15.452;2023-04-01T19:35:42;15.60;40.20
2783;DHT22;1399;47.072;15.452;2023-04-01T19:43:48;15.60;40.60
2783;DHT22;1399;47.072;15.452;2023-04-01T19:52:03;15.50;40.80
2783;DHT22;1399;47.072;15.452;2023-04-01T20:00:31;15.50;41.10
2783;DHT22;1399;47.072;15.452;2023-04-01T20:02:58;15.50;41.20
2783;DHT22;1399;47.072;15.452;2023-04-01T20:06:14;15.50;41.40
2783;DHT22;1399;47.072;15.452;2023-04-01T20:08:39;15.50;41.40
2783;DHT22;1399;47.072;15.452;2023-04-01T20:25:19;15.40;42.10
2783;DHT22;1399;47.072;15.452;2023-04-01T20:31:11;15.40;42.30
2783;DHT22;1399;47.072;15.452;2023-04-01T20:39:18;15.40;42.70
2783;DHT22;1399;47.072;15.452;2023-04-01T20:56:19;15.20;43.40
2783;DHT22;1399;47.072;15.452;2023-04-01T21:07:37;15.20;43.70
2783;DHT22;1399;47.072;15.452;2023-04-01T21:22:26;15.20;44.40
2783;DHT22;1399;47.072;15.452;2023-04-01T21:43:16;15.10;45.00
2783;DHT22;1399;47.072;15.452;2023-04-01T21:45:23;15.10;45.10
2783;DHT22;1399;47.072;15.452;2023-04-01T21:53:52;15.00;45.40
2783;DHT22;1399;47.072;15.452;2023-04-01T21:56:55;15.00;45.50
2783;DHT22;1399;47.072;15.452;2023-04-01T22:02:25;15.00;45.80
2783;DHT22;1399;47.072;15.452;2023-04-01T22:10:14;15.00;46.20
2783;DHT22;1399;47.072;15.452;2023-04-01T22:18:30;14.90;46.50
2783;DHT22;1399;47.072;15.452;2023-04-01T22:21:21;15.00;46.60
2783;DHT22;1399;47.072;15.452;2023-04-01T22:23:52;15.00;46.70
2783;DHT22;1399;47.072;15.452;2023-04-01T22:26:45;14.90;46.80
2783;DHT22;1399;47.072;15.452;2023-04-01T22:29:35;14.90;46.90
2783;DHT22;1399;47.072;15.452;2023-04-01T22:32:25;14.90;46.90
2783;DHT22;1399;47.072;15.452;2023-04-01T22:35:07;14.90;47.00
2783;DHT22;1399;47.072;15.452;2023-04-01T22:43:40;14.90;47.40
2783;DHT22;1399;47.072;15.452;2023-04-01T22:52:02;14.80;47.60
2783;DHT22;1399;47.072;15.452;2023-04-01T22:54:43;14.80;47.70
2783;DHT22;1399;47.072;15.452;2023-04-01T23:00:23;14.80;47.90
2783;DHT22;1399;47.072;15.452;2023-04-01T23:05:26;14.80;48.10
2783;DHT22;1399;47.072;15.452;2023-04-01T23:10:54;14.80;48.30
2783;DHT22;1399;47.072;15.452;2023-04-01T23:14:02;14.70;48.30
2783;DHT22;1399;47.072;15.452;2023-04-01T23:16:24;14.70;48.30
2783;DHT22;1399;47.072;15.452;2023-04-01T23:18:57;14.70;48.40
2783;DHT22;1399;47.072;15.452;2023-04-01T23:21:46;14.70;48.50
2783;DHT22;1399;47.072;15.452;2023-04-01T23:24:37;14.70;48.50
2783;DHT22;1399;47.072;15.452;2023-04-01T23:29:45;14.60;48.70
2783;DHT22;1399;47.072;15.452;2023-04-01T23:32:15;14.60;48.70
2783;DHT22;1399;47.072;15.452;2023-04-01T23:34:48;14.60;48.80
2783;DHT22;1399;47.072;15.452;2023-04-01T23:37:16;14.60;48.80
2783;DHT22;1399;47.072;15.452;2023-04-01T23:39:45;14.50;48.90
2783;DHT22;1399;47.072;15.452;2023-04-01T23:44:46;14.50;49.00
2783;DHT22;1399;47.072;15.452;2023-04-01T23:47:17;14.50;49.10
2783;DHT22;1399;47.072;15.452;2023-04-01T23:50:20;14.40;49.70
2783;DHT22;1399;47.072;15.452;2023-04-01T23:53:00;14.50;49.20
2783;DHT22;1399;47.072;15.452;2023-04-01T23:55:31;14.40;49.30
